createdAt,value
2022-10-04T00:02:27.773Z,8.77
2022-10-04T00:05:03.231Z,9.90
2022-10-04T00:07:34.433Z,9.48
2022-10-04T00:10:07.032Z,9.65
2022-10-04T00:12:39.673Z,9.10
2022-10-04T00:15:19.022Z,10.18
2022-10-04T00:17:59.506Z,8.93
2022-10-04T00:20:58.790Z,10.02
2022-10-04T00:23:29.694Z,9.30
2022-10-04T00:25:59.838Z,9.20
2022-10-04T00:28:46.718Z,9.85
2022-10-04T00:31:18.115Z,9.77
2022-10-04T00:33:47.814Z,10.90
2022-10-04T00:36:42.585Z,10.40
2022-10-04T00:39:24.143Z,10.85
2022-10-04T00:42:26.872Z,9.85
2022-10-04T00:44:59.418Z,8.73
2022-10-04T00:47:31.592Z,9.90
2022-10-04T00:50:06.745Z,9.35
2022-10-04T00:52:38.236Z,9.73
2022-10-04T00:55:10.903Z,10.15
2022-10-04T00:57:43.043Z,10.10
2022-10-04T01:00:16.160Z,10.20
2022-10-04T01:02:53.138Z,10.30
2022-10-04T01:05:24.350Z,9.73
2022-10-04T01:07:57.569Z,9.68
2022-10-04T01:10:30.787Z,10.30
2022-10-04T01:13:05.661Z,9.57
2022-10-04T01:15:43.961Z,9.30
2022-10-04T01:18:15.585Z,9.10
2022-10-04T01:20:54.407Z,9.15
2022-10-04T01:23:46.754Z,9.52
2022-10-04T01:26:41.156Z,9.30
2022-10-04T01:29:15.110Z,8.35
2022-10-04T01:31:45.736Z,8.80
2022-10-04T01:34:16.526Z,8.98
2022-10-04T01:36:47.263Z,9.68
2022-10-04T01:39:18.320Z,9.23
2022-10-04T01:41:51.082Z,8.85
2022-10-04T01:44:26.213Z,8.95
2022-10-04T01:46:57.159Z,9.60
2022-10-04T01:49:29.299Z,8.80
2022-10-04T01:52:02.412Z,9.25
2022-10-04T01:54:37.211Z,10.00
2022-10-04T01:57:12.097Z,8.57
2022-10-04T01:59:46.082Z,8.05
2022-10-04T02:02:22.879Z,8.55
2022-10-04T02:04:55.427Z,9.55
2022-10-04T02:07:26.155Z,8.35
2022-10-04T02:09:59.707Z,9.85
2022-10-04T02:12:31.397Z,8.80
2022-10-04T02:15:01.862Z,8.70
2022-10-04T02:17:32.461Z,8.55
2022-10-04T02:20:02.136Z,9.57
2022-10-04T02:22:30.262Z,9.15
2022-10-04T02:24:59.724Z,8.85
2022-10-04T02:27:29.047Z,8.43
2022-10-04T02:30:02.332Z,9.50
2022-10-04T02:32:49.520Z,8.15
2022-10-04T02:35:18.396Z,9.02
2022-10-04T02:37:47.482Z,8.50
2022-10-04T02:40:20.235Z,8.73
2022-10-04T02:42:55.145Z,9.07
2022-10-04T02:45:30.226Z,9.35
2022-10-04T02:48:02.536Z,8.45
2022-10-04T02:50:35.608Z,8.52
2022-10-04T02:53:13.860Z,9.02
2022-10-04T02:55:44.635Z,9.05
2022-10-04T02:58:18.280Z,9.20
2022-10-04T03:00:49.586Z,8.60
2022-10-04T03:03:23.531Z,9.10
2022-10-04T03:06:05.255Z,9.15
2022-10-04T03:08:37.018Z,10.13
2022-10-04T03:11:06.909Z,9.02
2022-10-04T03:13:37.190Z,8.90
2022-10-04T03:16:05.566Z,9.07
2022-10-04T03:18:35.676Z,9.57
2022-10-04T03:21:06.159Z,8.35
2022-10-04T03:23:34.417Z,9.43
2022-10-04T03:26:15.199Z,9.05
2022-10-04T03:28:43.178Z,8.95
2022-10-04T03:31:12.039Z,8.40
2022-10-04T03:33:40.051Z,8.27
2022-10-04T03:36:08.519Z,8.68
2022-10-04T03:38:37.293Z,8.65
2022-10-04T03:41:07.511Z,8.80
2022-10-04T03:43:43.514Z,8.85
2022-10-04T03:46:12.529Z,8.20
2022-10-04T03:48:43.283Z,9.02
2022-10-04T03:51:16.718Z,9.05
2022-10-04T03:53:46.571Z,8.85
2022-10-04T03:56:20.054Z,9.10
2022-10-04T03:58:50.227Z,9.23
2022-10-04T04:01:40.476Z,9.18
2022-10-04T04:04:19.190Z,9.02
2022-10-04T04:06:53.188Z,8.65
2022-10-04T04:09:26.644Z,9.48
2022-10-04T04:11:58.920Z,8.23
2022-10-04T04:14:28.589Z,8.63
2022-10-04T04:17:36.753Z,11.27
2022-10-04T04:20:08.243Z,10.93
2022-10-04T04:22:37.843Z,16.17
2022-10-04T04:25:12.640Z,8.65
2022-10-04T04:27:44.744Z,9.07
2022-10-04T04:30:17.639Z,8.23
2022-10-04T04:32:49.735Z,9.45
2022-10-04T04:35:26.580Z,8.38
2022-10-04T04:38:06.402Z,8.25
2022-10-04T04:40:34.617Z,8.30
2022-10-04T04:43:04.528Z,7.70
2022-10-04T04:45:35.824Z,8.88
2022-10-04T04:48:04.796Z,10.18
2022-10-04T04:50:37.406Z,8.50
2022-10-04T04:53:09.565Z,8.65
2022-10-04T04:56:02.371Z,8.93
2022-10-04T04:58:35.310Z,9.20
2022-10-04T05:01:05.584Z,8.10
2022-10-04T05:03:34.110Z,8.93
2022-10-04T05:06:04.639Z,8.63
2022-10-04T05:08:38.756Z,8.55
2022-10-04T05:11:16.096Z,8.23
2022-10-04T05:13:50.779Z,9.50
2022-10-04T05:16:28.060Z,8.10
2022-10-04T05:19:00.202Z,9.40
2022-10-04T05:21:30.966Z,10.00
2022-10-04T05:24:00.373Z,10.57
2022-10-04T05:26:31.235Z,8.52
2022-10-04T05:29:08.275Z,9.32
2022-10-04T05:31:46.287Z,8.50
2022-10-04T05:34:22.871Z,11.07
2022-10-04T05:37:20.657Z,10.25
2022-10-04T05:39:55.744Z,8.85
2022-10-04T05:42:29.383Z,8.25
2022-10-04T05:44:59.298Z,7.80
2022-10-04T05:47:29.705Z,7.88
2022-10-04T05:50:00.039Z,7.70
2022-10-04T05:52:31.082Z,7.45
2022-10-04T05:55:29.306Z,8.98
2022-10-04T05:58:35.803Z,8.75
2022-10-04T06:01:20.578Z,8.77
2022-10-04T06:04:26.099Z,7.40
2022-10-04T06:07:00.244Z,7.50
2022-10-04T06:09:49.732Z,7.93
2022-10-04T06:12:30.216Z,7.80
2022-10-04T06:15:23.434Z,7.85
2022-10-04T06:18:05.201Z,7.47
2022-10-04T06:20:54.834Z,7.60
2022-10-04T06:23:25.360Z,8.10
2022-10-04T06:25:58.563Z,8.60
2022-10-04T06:28:32.493Z,8.30
2022-10-04T06:31:28.627Z,7.75
2022-10-04T06:34:23.849Z,8.65
2022-10-04T06:37:16.521Z,7.35
2022-10-04T06:40:02.360Z,7.65
2022-10-04T06:43:05.384Z,6.47
2022-10-04T06:45:46.472Z,8.10
2022-10-04T06:48:41.544Z,7.68
2022-10-04T06:51:22.038Z,7.43
2022-10-04T06:54:03.494Z,6.95
2022-10-04T06:56:49.982Z,6.85
2022-10-04T06:59:32.072Z,7.20
2022-10-04T07:02:03.834Z,7.93
2022-10-04T07:05:06.323Z,7.00
2022-10-04T07:07:38.374Z,7.05
2022-10-04T07:10:32.044Z,7.00
2022-10-04T07:13:18.108Z,6.70
2022-10-04T07:15:52.066Z,7.07
2022-10-04T07:18:25.023Z,6.93
2022-10-04T07:21:02.036Z,6.35
2022-10-04T07:23:35.071Z,7.85
2022-10-04T07:26:07.252Z,6.78
2022-10-04T07:28:59.896Z,6.85
2022-10-04T07:31:30.823Z,6.68
2022-10-04T07:34:02.604Z,6.10
2022-10-04T07:36:40.896Z,6.90
2022-10-04T07:39:15.197Z,6.57
2022-10-04T07:41:50.004Z,8.50
2022-10-04T07:44:27.514Z,7.13
2022-10-04T07:46:59.886Z,7.55
2022-10-04T07:49:28.322Z,8.50
2022-10-04T07:52:32.465Z,8.00
2022-10-04T07:55:14.486Z,8.50
2022-10-04T07:57:51.361Z,8.23
2022-10-04T08:00:22.039Z,8.88
2022-10-04T08:03:05.476Z,7.95
2022-10-04T08:05:38.630Z,8.00
2022-10-04T08:08:23.391Z,8.40
2022-10-04T08:11:07.662Z,7.90
2022-10-04T08:13:45.425Z,8.53
2022-10-04T08:16:26.385Z,7.80
2022-10-04T08:19:10.285Z,8.90
2022-10-04T08:21:49.254Z,7.20
2022-10-04T08:24:26.694Z,7.90
2022-10-04T08:27:11.431Z,7.90
2022-10-04T08:30:02.596Z,8.47
2022-10-04T08:32:54.725Z,7.83
2022-10-04T08:35:36.222Z,7.00
2022-10-04T08:38:36.939Z,6.47
2022-10-04T08:41:29.565Z,7.00
2022-10-04T08:44:28.349Z,7.13
2022-10-04T08:47:18.722Z,7.20
2022-10-04T08:50:19.588Z,6.33
2022-10-04T08:53:24.787Z,6.20
2022-10-04T08:56:08.289Z,6.20
2022-10-04T08:58:53.640Z,5.20
2022-10-04T09:01:49.896Z,5.60
2022-10-04T09:04:55.808Z,6.00
2022-10-04T09:07:50.221Z,7.60
2022-10-04T09:10:44.490Z,7.80
2022-10-04T09:13:46.993Z,6.53
2022-10-04T09:16:19.637Z,7.40
2022-10-04T09:19:00.383Z,6.20
2022-10-04T09:21:39.005Z,6.23
2022-10-04T09:24:32.176Z,6.60
2022-10-04T09:27:09.732Z,6.00
2022-10-04T09:30:05.179Z,5.90
2022-10-04T09:33:17.481Z,5.73
2022-10-04T09:36:10.560Z,4.87
2022-10-04T09:39:28.580Z,4.20
2022-10-04T09:42:13.956Z,4.00
2022-10-04T09:45:11.095Z,3.77
2022-10-04T09:47:45.808Z,3.90
2022-10-04T09:50:40.049Z,4.13
2022-10-04T09:53:29.218Z,3.47
2022-10-04T09:56:19.427Z,3.90
2022-10-04T09:59:27.256Z,4.67
2022-10-04T10:02:43.042Z,4.63
2022-10-04T10:05:31.292Z,3.00
2022-10-04T10:08:15.702Z,3.13
2022-10-04T10:11:13.632Z,4.07
2022-10-04T10:14:04.069Z,3.30
2022-10-04T10:16:42.976Z,3.80
2022-10-04T10:19:41.621Z,3.27
2022-10-04T10:22:30.443Z,3.20
2022-10-04T10:25:19.754Z,4.90
2022-10-04T10:27:59.933Z,3.23
2022-10-04T10:30:32.068Z,3.10
2022-10-04T10:33:27.933Z,3.53
2022-10-04T10:36:25.668Z,3.20
2022-10-04T10:39:23.614Z,3.60
2022-10-04T10:42:11.000Z,3.67
2022-10-04T10:44:56.251Z,3.20
2022-10-04T10:47:40.347Z,2.80
2022-10-04T10:51:02.617Z,3.47
2022-10-04T10:54:11.508Z,3.80
2022-10-04T10:56:58.386Z,3.43
2022-10-04T11:00:05.254Z,3.53
2022-10-04T11:03:14.632Z,3.50
2022-10-04T11:06:25.163Z,3.50
2022-10-04T11:09:29.728Z,3.90
2022-10-04T11:12:39.900Z,3.80
2022-10-04T11:15:49.491Z,3.30
2022-10-04T11:18:52.572Z,3.27
2022-10-04T11:21:47.862Z,2.93
2022-10-04T11:24:44.486Z,3.07
2022-10-04T11:27:30.596Z,3.37
2022-10-04T11:30:23.449Z,3.73
2022-10-04T11:33:39.081Z,4.13
2022-10-04T11:36:29.052Z,3.70
2022-10-04T11:39:31.828Z,3.87
2022-10-04T11:42:18.056Z,3.40
2022-10-04T11:45:33.417Z,3.80
2022-10-04T11:48:14.193Z,3.63
2022-10-04T11:51:03.194Z,3.40
2022-10-04T11:54:07.505Z,3.20
2022-10-04T11:56:46.699Z,3.70
2022-10-04T11:59:28.269Z,3.27
2022-10-04T12:02:16.352Z,3.50
2022-10-04T12:05:13.759Z,3.80
2022-10-04T12:07:50.887Z,3.30
2022-10-04T12:10:28.625Z,3.47
2022-10-04T12:13:24.954Z,3.40
2022-10-04T12:16:20.052Z,3.80
2022-10-04T12:19:24.907Z,3.80
2022-10-04T12:22:02.627Z,3.23
2022-10-04T12:25:00.528Z,4.20
2022-10-04T12:27:49.069Z,3.30
2022-10-04T12:30:31.885Z,3.37
2022-10-04T12:33:12.469Z,3.50
2022-10-04T12:35:54.999Z,3.17
2022-10-04T12:38:46.591Z,2.97
2022-10-04T12:41:29.766Z,3.23
2022-10-04T12:44:10.861Z,3.00
2022-10-04T12:46:52.984Z,3.40
2022-10-04T12:49:32.848Z,3.10
2022-10-04T12:52:12.066Z,2.53
2022-10-04T12:54:43.729Z,2.87
2022-10-04T12:57:45.221Z,2.90
2022-10-04T13:00:19.976Z,2.53
2022-10-04T13:03:08.969Z,2.53
2022-10-04T13:05:51.384Z,2.80
2022-10-04T13:08:31.153Z,2.40
2022-10-04T13:11:14.470Z,2.87
2022-10-04T13:14:14.715Z,2.50
2022-10-04T13:19:52.991Z,2.53
2022-10-04T13:22:55.199Z,2.60
2022-10-04T13:25:36.155Z,2.60
2022-10-04T13:28:12.129Z,2.30
2022-10-04T13:30:49.501Z,2.40
2022-10-04T13:33:26.932Z,2.67
2022-10-04T13:36:03.882Z,2.67
2022-10-04T13:39:09.415Z,2.87
2022-10-04T13:41:57.363Z,2.60
2022-10-04T13:44:44.326Z,2.80
2022-10-04T13:47:32.994Z,2.50
2022-10-04T13:50:23.931Z,3.03
2022-10-04T13:53:20.094Z,3.20
2022-10-04T13:56:12.991Z,3.23
2022-10-04T13:58:48.522Z,3.50
2022-10-04T14:01:53.656Z,3.57
2022-10-04T14:04:43.602Z,3.17
2022-10-04T14:07:43.474Z,2.70
2022-10-04T14:10:31.865Z,3.20
2022-10-04T14:13:42.873Z,3.37
2022-10-04T14:16:51.872Z,4.77
2022-10-04T14:19:44.424Z,2.67
2022-10-04T14:22:47.339Z,2.77
2022-10-04T14:26:00.731Z,3.10
2022-10-04T14:28:54.874Z,3.27
2022-10-04T14:31:49.606Z,2.80
2022-10-04T14:34:42.507Z,3.53
2022-10-04T14:37:53.733Z,2.80
2022-10-04T14:40:53.992Z,3.10
2022-10-04T14:43:59.687Z,2.13
2022-10-04T14:46:45.168Z,2.83
2022-10-04T14:49:22.198Z,2.60
2022-10-04T14:52:06.555Z,2.93
2022-10-04T14:54:43.535Z,2.93
2022-10-04T14:57:19.395Z,2.50
2022-10-04T15:00:11.829Z,2.30
2022-10-04T15:03:19.060Z,2.70
2022-10-04T15:06:10.956Z,3.20
2022-10-04T15:09:07.761Z,4.80
2022-10-04T15:11:41.811Z,3.30
2022-10-04T15:14:30.556Z,3.10
2022-10-04T15:17:01.334Z,3.00
2022-10-04T15:19:34.810Z,2.90
2022-10-04T15:22:08.988Z,2.43
2022-10-04T15:24:49.105Z,2.83
2022-10-04T15:27:46.634Z,2.70
2022-10-04T15:30:24.078Z,3.23
2022-10-04T15:33:15.361Z,3.13
2022-10-04T15:35:53.612Z,2.90
2022-10-04T15:38:29.856Z,2.80
2022-10-04T15:41:07.119Z,2.70
2022-10-04T15:43:43.659Z,2.80
2022-10-04T15:46:41.714Z,3.00
2022-10-04T15:49:24.987Z,2.93
2022-10-04T15:52:29.524Z,3.87
2022-10-04T15:55:17.641Z,2.90
2022-10-04T15:58:20.925Z,3.13
2022-10-04T16:00:59.273Z,3.27
2022-10-04T16:03:40.761Z,3.57
2022-10-04T16:06:21.668Z,3.60
2022-10-04T16:09:16.173Z,3.33
2022-10-04T16:12:04.875Z,3.10
2022-10-04T16:14:59.806Z,2.70
2022-10-04T16:17:53.174Z,3.60
2022-10-04T16:21:07.351Z,3.27
2022-10-04T16:23:39.231Z,3.63
2022-10-04T16:26:08.323Z,3.10
2022-10-04T16:29:04.523Z,3.10
2022-10-04T16:31:57.040Z,2.80
2022-10-04T16:34:42.364Z,4.10
2022-10-04T16:37:36.634Z,3.20
2022-10-04T16:40:27.221Z,3.10
2022-10-04T16:42:57.680Z,3.47
2022-10-04T16:45:44.356Z,3.47
2022-10-04T16:48:27.017Z,2.67
2022-10-04T16:51:28.572Z,2.97
2022-10-04T16:54:06.775Z,3.10
2022-10-04T16:57:13.021Z,3.53
2022-10-04T16:59:51.670Z,3.17
2022-10-04T17:02:55.579Z,3.43
2022-10-04T17:05:40.772Z,3.30
2022-10-04T17:08:49.684Z,4.27
2022-10-04T17:12:01.276Z,3.90
2022-10-04T17:15:08.053Z,3.63
2022-10-04T17:17:46.926Z,3.67
2022-10-04T17:20:26.985Z,4.00
2022-10-04T17:23:09.476Z,3.97
2022-10-04T17:25:45.482Z,4.27
2022-10-04T17:28:29.230Z,4.00
2022-10-04T17:31:10.151Z,3.73
2022-10-04T17:33:53.690Z,2.93
2022-10-04T17:36:39.094Z,3.40
2022-10-04T17:39:22.509Z,3.60
2022-10-04T17:42:02.362Z,3.53
2022-10-04T17:45:00.057Z,4.40
2022-10-04T17:47:58.493Z,4.23
2022-10-04T17:50:52.270Z,4.73
2022-10-04T17:53:42.087Z,5.53
2022-10-04T17:56:14.101Z,4.13
2022-10-04T17:58:48.903Z,4.77
2022-10-04T18:01:27.704Z,4.50
2022-10-04T18:04:00.569Z,4.73
2022-10-04T18:06:34.449Z,4.37
2022-10-04T18:09:09.662Z,5.20
2022-10-04T18:11:47.266Z,5.40
2022-10-04T18:14:43.194Z,6.53
2022-10-04T18:17:24.512Z,5.60
2022-10-04T18:20:02.842Z,5.50
2022-10-04T18:22:43.598Z,5.20
2022-10-04T18:25:16.267Z,5.60
2022-10-04T18:27:54.200Z,5.00
2022-10-04T18:30:22.684Z,6.10
2022-10-04T18:32:55.201Z,5.50
2022-10-04T18:35:29.489Z,6.17
2022-10-04T18:37:59.890Z,5.60
2022-10-04T18:40:33.119Z,5.80
2022-10-04T18:43:01.902Z,6.27
2022-10-04T18:45:31.737Z,6.00
2022-10-04T18:48:02.570Z,5.43
2022-10-04T18:50:35.292Z,5.73
2022-10-04T18:53:25.348Z,5.80
2022-10-04T18:56:00.334Z,5.63
2022-10-04T18:59:00.794Z,5.83
2022-10-04T19:02:03.915Z,5.60
2022-10-04T19:04:42.688Z,5.57
2022-10-04T19:07:14.258Z,5.73
2022-10-04T19:10:01.352Z,5.83
2022-10-04T19:12:37.927Z,5.73
2022-10-04T19:15:19.491Z,6.03
2022-10-04T19:17:57.951Z,6.30
2022-10-04T19:20:34.759Z,6.23
2022-10-04T19:23:12.256Z,5.00
2022-10-04T19:26:03.110Z,6.23
2022-10-04T19:28:37.583Z,5.90
2022-10-04T19:31:17.889Z,6.50
2022-10-04T19:33:52.039Z,6.17
2022-10-04T19:36:39.317Z,5.80
2022-10-04T19:39:25.617Z,6.17
2022-10-04T19:41:59.279Z,6.93
2022-10-04T19:44:53.884Z,6.07
2022-10-04T19:47:40.583Z,6.17
2022-10-04T19:50:18.451Z,6.43
2022-10-04T19:52:53.266Z,6.67
2022-10-04T19:55:45.209Z,5.77
2022-10-04T19:58:26.878Z,6.60
2022-10-04T20:00:55.410Z,6.40
2022-10-04T20:03:23.510Z,6.73
2022-10-04T20:05:53.257Z,6.47
2022-10-04T20:09:02.416Z,6.67
2022-10-04T20:11:49.675Z,6.37
2022-10-04T20:14:50.514Z,6.63
2022-10-04T20:17:34.755Z,6.03
2022-10-04T20:20:02.853Z,6.07
2022-10-04T20:22:52.198Z,6.20
2022-10-04T20:25:53.308Z,5.93
2022-10-04T20:28:46.342Z,6.23
2022-10-04T20:31:47.430Z,5.73
2022-10-04T20:34:33.135Z,6.30
2022-10-04T20:37:01.329Z,5.93
2022-10-04T20:40:01.652Z,6.80
2022-10-04T20:42:39.763Z,5.50
2022-10-04T20:45:27.799Z,5.93
2022-10-04T20:47:57.624Z,6.30
2022-10-04T20:50:35.333Z,5.00
2022-10-04T20:53:06.669Z,6.10
2022-10-04T20:55:36.302Z,6.00
2022-10-04T20:58:18.560Z,5.57
2022-10-04T21:00:54.436Z,6.03
2022-10-04T21:03:23.383Z,6.07
2022-10-04T21:06:06.149Z,5.97
2022-10-04T21:08:34.384Z,5.40
2022-10-04T21:11:18.488Z,5.70
2022-10-04T21:13:57.251Z,5.70
2022-10-04T21:16:44.951Z,5.60
2022-10-04T21:19:50.373Z,5.30
2022-10-04T21:22:37.662Z,4.67
2022-10-04T21:25:41.028Z,5.83
2022-10-04T21:28:34.964Z,5.27
2022-10-04T21:31:04.275Z,5.63
2022-10-04T21:33:38.007Z,5.40
2022-10-04T21:36:07.265Z,6.13
2022-10-04T21:38:35.209Z,5.63
2022-10-04T21:41:03.163Z,5.47
2022-10-04T21:43:31.317Z,5.43
2022-10-04T21:45:59.287Z,5.83
2022-10-04T21:48:27.849Z,5.40
2022-10-04T21:50:57.322Z,5.67
2022-10-04T21:53:25.221Z,5.90
2022-10-04T21:55:53.169Z,5.60
2022-10-04T21:58:21.040Z,6.10
2022-10-04T22:00:49.001Z,5.17
2022-10-04T22:03:16.965Z,5.70
2022-10-04T22:05:44.925Z,5.60
2022-10-04T22:08:14.250Z,5.97
2022-10-04T22:10:43.370Z,5.20
2022-10-04T22:13:11.231Z,5.70
2022-10-04T22:15:39.222Z,5.00
2022-10-04T22:18:07.197Z,6.10
2022-10-04T22:20:35.288Z,5.80
2022-10-04T22:23:03.756Z,5.33
2022-10-04T22:25:32.938Z,5.60
2022-10-04T22:28:01.252Z,5.37
2022-10-04T22:30:32.205Z,5.43
2022-10-04T22:33:02.595Z,5.80
2022-10-04T22:35:34.669Z,6.07
2022-10-04T22:38:02.632Z,5.10
2022-10-04T22:40:32.005Z,6.13
2022-10-04T22:43:00.994Z,5.97
2022-10-04T22:45:33.475Z,5.50
2022-10-04T22:48:08.100Z,5.57
2022-10-04T22:50:38.604Z,5.90
2022-10-04T22:53:13.228Z,5.40
2022-10-04T22:55:42.632Z,5.37
2022-10-04T22:58:14.084Z,6.03
2022-10-04T23:00:42.728Z,5.50
2022-10-04T23:03:22.633Z,5.80
2022-10-04T23:05:50.675Z,5.87
2022-10-04T23:08:19.076Z,5.63
2022-10-04T23:10:48.542Z,6.00
2022-10-04T23:13:17.291Z,5.50
2022-10-04T23:15:47.152Z,5.20
2022-10-04T23:18:16.475Z,5.97
2022-10-04T23:20:44.765Z,6.63
2022-10-04T23:23:18.342Z,6.20
2022-10-04T23:25:47.201Z,5.40
2022-10-04T23:28:18.127Z,5.70
2022-10-04T23:31:01.806Z,5.93
2022-10-04T23:33:29.920Z,6.33
2022-10-04T23:35:58.018Z,5.67
2022-10-04T23:38:25.909Z,5.90
2022-10-04T23:40:53.778Z,5.20
2022-10-04T23:43:25.808Z,5.80
2022-10-04T23:45:55.092Z,5.40
2022-10-04T23:48:25.585Z,5.57
2022-10-04T23:50:55.224Z,5.70
2022-10-04T23:53:26.817Z,5.97
2022-10-04T23:55:55.925Z,5.50
2022-10-04T23:58:28.172Z,6.40
